createdAt,value
2022-12-01T07:02:52.985Z,28.75
2022-12-01T07:05:19.610Z,25.03
2022-12-01T07:07:46.334Z,28.27
2022-12-01T07:10:14.164Z,28.48
2022-12-01T07:12:40.816Z,39.70
2022-12-01T07:15:09.021Z,41.75
2022-12-01T07:17:35.988Z,37.60
2022-12-01T07:20:04.075Z,35.72
2022-12-01T07:22:32.802Z,42.00
2022-12-01T07:24:59.615Z,42.35
2022-12-01T07:27:29.704Z,50.53
2022-12-01T07:29:56.096Z,46.40
2022-12-01T07:32:22.596Z,45.85
2022-12-01T07:34:49.111Z,44.08
2022-12-01T07:37:15.622Z,39.00
2022-12-01T07:39:42.070Z,38.80
2022-12-01T07:42:08.620Z,38.43
2022-12-01T07:44:35.130Z,44.17
2022-12-01T07:47:01.575Z,45.92
2022-12-01T07:49:28.288Z,38.00
2022-12-01T07:51:54.712Z,47.30
2022-12-01T07:54:21.412Z,44.87
2022-12-01T07:56:47.896Z,46.88
2022-12-01T07:59:14.434Z,48.95
2022-12-01T08:01:44.484Z,50.38
2022-12-01T08:04:12.080Z,41.03
2022-12-01T08:06:38.594Z,51.13
2022-12-01T08:09:05.148Z,49.92
2022-12-01T08:11:31.682Z,48.45
2022-12-01T08:13:58.505Z,43.80
2022-12-01T08:16:25.458Z,40.60
2022-12-01T08:18:52.895Z,46.63
2022-12-01T08:21:21.689Z,43.78
2022-12-01T08:23:48.629Z,41.97
2022-12-01T08:26:17.953Z,48.72
2022-12-01T08:28:45.481Z,43.38
2022-12-01T08:31:22.752Z,52.30
2022-12-01T08:33:51.106Z,49.45
2022-12-01T08:36:18.306Z,53.92
2022-12-01T08:38:45.988Z,45.95
2022-12-01T08:41:13.631Z,38.58
2022-12-01T08:43:57.320Z,50.10
2022-12-01T08:46:26.232Z,35.05
2022-12-01T08:48:55.068Z,34.15
2022-12-01T08:51:21.622Z,45.70
2022-12-01T08:53:49.485Z,47.33
2022-12-01T08:56:17.513Z,42.23
2022-12-01T08:58:44.069Z,40.50
2022-12-01T09:01:13.055Z,36.92
2022-12-01T09:03:40.514Z,43.45
2022-12-01T09:06:13.489Z,47.60
2022-12-01T09:08:40.260Z,43.37
2022-12-01T09:11:11.682Z,47.88
2022-12-01T09:13:39.676Z,47.28
2022-12-01T09:16:10.320Z,42.53
2022-12-01T09:18:37.360Z,42.45
2022-12-01T09:21:19.001Z,46.37
2022-12-01T09:23:46.009Z,44.58
2022-12-01T09:26:14.018Z,40.05
2022-12-01T09:28:40.585Z,47.35
2022-12-01T09:31:09.287Z,42.45
2022-12-01T09:33:36.330Z,50.27
2022-12-01T09:36:04.059Z,54.53
2022-12-01T09:38:32.107Z,41.65
2022-12-01T09:41:05.864Z,39.40
2022-12-01T09:43:49.362Z,46.72
2022-12-01T09:46:20.458Z,48.37
2022-12-01T09:48:49.678Z,48.55
2022-12-01T09:51:19.129Z,42.25
2022-12-01T09:53:48.489Z,47.58
2022-12-01T09:56:22.793Z,44.88
2022-12-01T09:58:53.937Z,46.63
2022-12-01T10:01:27.398Z,40.97
2022-12-01T10:03:59.168Z,50.55
2022-12-01T10:06:44.470Z,45.97
2022-12-01T10:09:29.949Z,48.33
2022-12-01T10:12:20.604Z,45.23
2022-12-01T10:14:48.616Z,44.40
2022-12-01T10:17:33.099Z,42.55
2022-12-01T10:20:10.777Z,52.60
2022-12-01T10:23:18.211Z,51.53
2022-12-01T10:26:14.648Z,41.43
2022-12-01T10:28:50.486Z,40.63
2022-12-01T10:31:23.699Z,47.22
2022-12-01T10:33:59.598Z,46.80
2022-12-01T10:36:28.388Z,35.15
2022-12-01T10:38:55.183Z,49.33
2022-12-01T10:41:23.821Z,38.70
2022-12-01T10:44:00.722Z,49.47
2022-12-01T10:46:49.151Z,37.15
2022-12-01T10:49:17.525Z,37.17
2022-12-01T10:51:56.577Z,40.37
2022-12-01T10:54:32.588Z,43.65
2022-12-01T10:56:59.490Z,41.30
2022-12-01T10:59:46.696Z,42.78
2022-12-01T11:02:22.107Z,47.67
2022-12-01T11:05:01.169Z,46.07
2022-12-01T11:07:35.105Z,43.70
2022-12-01T11:10:19.535Z,48.53
2022-12-01T11:12:55.906Z,44.92
2022-12-01T11:15:38.410Z,50.45
2022-12-01T11:18:26.548Z,48.40
2022-12-01T11:21:27.902Z,48.85
2022-12-01T11:23:56.555Z,40.47
2022-12-01T12:22:55.431Z,37.92
2022-12-01T12:49:19.778Z,33.13
2022-12-01T13:20:23.923Z,29.90
2022-12-01T13:27:50.806Z,28.70
2022-12-01T13:34:26.186Z,23.40
2022-12-01T13:41:45.397Z,28.52
2022-12-01T13:48:00.282Z,29.57
2022-12-01T13:55:09.430Z,32.63
2022-12-01T14:02:08.503Z,26.90
2022-12-01T14:04:35.128Z,27.57
2022-12-01T14:12:02.701Z,31.33
2022-12-01T14:14:36.926Z,22.13
2022-12-01T14:17:04.524Z,28.58
2022-12-01T14:24:41.524Z,33.47
2022-12-01T14:27:11.771Z,28.95
2022-12-01T14:29:42.656Z,29.98
2022-12-01T14:32:22.425Z,31.27
2022-12-01T14:39:03.402Z,24.38
2022-12-01T14:45:18.735Z,28.60
2022-12-01T14:47:52.592Z,19.35
2022-12-01T14:50:51.937Z,27.57
2022-12-01T14:57:17.570Z,25.05
2022-12-01T15:03:48.260Z,29.33
2022-12-01T15:10:16.246Z,30.20
2022-12-01T15:12:42.778Z,24.98
2022-12-01T15:15:22.292Z,27.73
2022-12-01T15:18:57.684Z,28.52
2022-12-01T15:21:31.080Z,25.30
2022-12-01T15:24:03.352Z,29.15
2022-12-01T15:30:19.236Z,23.60
2022-12-01T15:36:42.280Z,26.90
2022-12-01T15:42:59.540Z,32.45
2022-12-01T15:53:07.332Z,30.40
2022-12-01T15:55:36.125Z,27.08
2022-12-01T15:58:07.628Z,31.67
2022-12-01T16:00:34.613Z,28.05
2022-12-01T16:03:48.013Z,25.73
2022-12-01T16:06:14.632Z,26.20
2022-12-01T16:09:30.136Z,23.60
2022-12-01T16:15:58.521Z,23.40
2022-12-01T16:22:22.028Z,21.40
2022-12-01T16:25:00.659Z,22.05
2022-12-01T16:27:30.022Z,23.55
2022-12-01T16:30:08.719Z,25.10
2022-12-01T16:36:43.706Z,24.17
2022-12-01T16:39:10.204Z,21.45
2022-12-01T16:41:41.151Z,24.67
2022-12-01T16:46:56.644Z,27.05
2022-12-01T16:49:24.623Z,24.17
2022-12-01T16:51:56.492Z,21.55
2022-12-01T16:54:23.550Z,24.70
2022-12-01T16:56:50.196Z,23.02
2022-12-01T16:59:16.675Z,20.90
2022-12-01T17:01:43.232Z,24.37
2022-12-01T17:04:09.792Z,21.73
2022-12-01T17:06:38.356Z,24.30
2022-12-01T17:09:05.740Z,26.73
2022-12-01T17:11:32.476Z,42.00
2022-12-01T17:13:59.081Z,52.33
2022-12-01T17:16:25.607Z,41.13
2022-12-01T17:18:52.194Z,25.73
2022-12-01T17:21:18.941Z,26.05
2022-12-01T17:23:45.428Z,25.00
2022-12-01T17:26:14.725Z,27.17
2022-12-01T17:28:41.940Z,24.65
2022-12-01T17:31:09.471Z,27.85
2022-12-01T17:33:36.655Z,20.35
2022-12-01T17:36:13.607Z,25.33
2022-12-01T17:38:41.997Z,25.27
2022-12-01T17:41:15.628Z,25.00
2022-12-01T17:43:42.490Z,24.85
2022-12-01T17:46:11.815Z,23.48
2022-12-01T17:48:41.691Z,22.88
2022-12-01T17:51:09.011Z,24.33
2022-12-01T17:53:36.674Z,24.83
2022-12-01T17:56:10.204Z,19.98
2022-12-01T17:58:37.395Z,23.40
2022-12-01T18:01:05.139Z,24.20
2022-12-01T18:03:32.363Z,26.67
2022-12-01T18:06:01.131Z,25.20
2022-12-01T18:08:29.708Z,25.42
2022-12-01T18:11:01.173Z,26.60
2022-12-01T18:13:27.774Z,19.85
2022-12-01T18:15:55.407Z,18.73
2022-12-01T18:18:21.943Z,25.75
2022-12-01T18:20:48.412Z,21.80
2022-12-01T18:23:14.868Z,23.67
2022-12-01T18:25:41.364Z,24.48
2022-12-01T18:28:10.816Z,22.93
2022-12-01T18:30:38.686Z,21.27
2022-12-01T18:33:06.551Z,23.15
2022-12-01T18:35:33.074Z,19.83
2022-12-01T18:37:59.493Z,25.75
2022-12-01T18:40:25.950Z,22.33
2022-12-01T18:42:52.477Z,35.20
2022-12-01T18:45:21.255Z,29.52
2022-12-01T18:47:48.102Z,27.38
2022-12-01T18:50:14.858Z,23.00
2022-12-01T18:52:41.448Z,19.07
2022-12-01T18:55:08.228Z,22.70
2022-12-01T18:57:34.827Z,29.73
2022-12-01T19:00:01.828Z,26.75
2022-12-01T19:02:28.459Z,26.23
2022-12-01T19:04:54.974Z,21.53
2022-12-01T19:07:25.240Z,28.08
2022-12-01T19:09:55.942Z,23.42
2022-12-01T19:12:22.406Z,24.88
2022-12-01T19:14:49.121Z,23.23
2022-12-01T19:17:15.748Z,18.90
2022-12-01T19:19:42.236Z,24.38
2022-12-01T19:22:08.742Z,20.42
2022-12-01T19:24:35.268Z,24.10
2022-12-01T19:27:01.792Z,25.67
2022-12-01T19:29:28.435Z,22.10
2022-12-01T19:31:55.399Z,22.95
2022-12-01T19:34:22.188Z,23.20
2022-12-01T19:36:49.848Z,27.25
2022-12-01T19:39:16.374Z,27.77
2022-12-01T19:41:43.063Z,31.47
2022-12-01T19:44:11.238Z,32.10
2022-12-01T19:46:37.782Z,33.92
2022-12-01T19:49:05.704Z,31.27
2022-12-01T19:51:35.298Z,32.13
2022-12-01T19:54:03.019Z,31.37
2022-12-01T19:56:29.548Z,35.67
2022-12-01T19:58:57.288Z,37.17
2022-12-01T20:01:23.916Z,34.13
2022-12-01T20:03:52.214Z,41.30
2022-12-01T20:10:53.925Z,32.38
2022-12-01T20:13:20.565Z,33.00
2022-12-01T20:15:46.989Z,26.08
2022-12-01T20:18:14.868Z,33.92
2022-12-01T20:20:41.528Z,35.60
2022-12-01T20:23:08.265Z,36.88
2022-12-01T20:25:34.813Z,36.38
2022-12-01T20:28:01.473Z,30.85
2022-12-01T20:30:27.969Z,30.95
2022-12-01T20:32:54.388Z,35.10
2022-12-01T20:35:20.889Z,40.03
2022-12-01T20:37:47.322Z,39.88
2022-12-01T20:40:13.817Z,42.00
2022-12-01T20:42:40.385Z,33.40
2022-12-01T20:45:07.515Z,37.77
2022-12-01T20:47:36.732Z,35.25
2022-12-01T20:50:05.742Z,33.25
2022-12-01T20:52:32.256Z,32.75
2022-12-01T20:54:58.850Z,35.08
2022-12-01T20:57:25.396Z,33.90
2022-12-01T20:59:52.124Z,33.75
2022-12-01T21:02:18.637Z,36.70
2022-12-01T21:05:12.389Z,35.03
2022-12-01T21:07:38.976Z,35.70
2022-12-01T21:10:06.463Z,39.10
2022-12-01T21:12:51.594Z,33.65
2022-12-01T21:15:25.434Z,31.50
2022-12-01T21:18:08.872Z,31.75
2022-12-01T21:20:44.076Z,35.75
2022-12-01T21:23:12.985Z,34.03
2022-12-01T21:25:40.729Z,38.92
2022-12-01T21:28:19.005Z,32.40
2022-12-01T21:30:49.763Z,33.67
2022-12-01T21:33:28.586Z,35.20
2022-12-01T21:35:55.857Z,31.20
2022-12-01T21:38:22.903Z,38.15
2022-12-01T21:40:49.553Z,30.42
2022-12-01T21:43:24.696Z,31.83
2022-12-01T21:45:58.045Z,34.95
2022-12-01T21:48:24.806Z,33.20
2022-12-01T21:50:59.566Z,32.78
2022-12-01T21:53:32.166Z,35.00
2022-12-01T21:55:58.661Z,32.30
2022-12-01T21:58:31.068Z,36.20
2022-12-01T22:00:58.969Z,38.87
2022-12-01T22:04:02.901Z,38.65
2022-12-01T22:06:38.675Z,38.25
2022-12-01T22:09:33.394Z,37.78
2022-12-01T22:12:13.761Z,34.42
2022-12-01T22:14:40.244Z,36.00
2022-12-01T22:17:06.678Z,33.35
2022-12-01T22:19:35.807Z,31.75
2022-12-01T22:22:09.517Z,34.42
2022-12-01T22:24:41.033Z,37.42
2022-12-01T22:27:38.172Z,34.20
2022-12-01T22:30:07.843Z,38.08
2022-12-01T22:32:59.243Z,42.00
2022-12-01T22:35:45.254Z,38.25
2022-12-01T22:38:37.799Z,38.03
2022-12-01T22:41:09.154Z,39.77
2022-12-01T22:43:47.429Z,39.92
2022-12-01T22:46:34.597Z,39.08
2022-12-01T22:49:03.249Z,41.33
2022-12-01T22:51:42.174Z,31.42
2022-12-01T22:54:14.658Z,38.50
2022-12-01T22:56:46.951Z,34.95
2022-12-01T22:59:13.758Z,46.00
2022-12-01T23:01:48.064Z,44.95
2022-12-01T23:04:39.938Z,39.78
2022-12-01T23:07:41.498Z,37.30
2022-12-01T23:10:17.220Z,41.00
2022-12-01T23:12:45.723Z,45.28
2022-12-01T23:15:17.909Z,44.55
2022-12-01T23:17:44.551Z,37.80
2022-12-01T23:20:11.108Z,47.00
2022-12-01T23:22:38.317Z,44.35
2022-12-01T23:25:16.881Z,38.65
2022-12-01T23:27:45.290Z,44.53
2022-12-01T23:30:13.079Z,46.58
2022-12-01T23:32:40.034Z,45.53
2022-12-01T23:35:18.869Z,48.60
2022-12-01T23:37:48.249Z,46.92
2022-12-01T23:40:31.349Z,45.72
2022-12-01T23:43:12.889Z,57.13
2022-12-01T23:45:39.383Z,45.70
2022-12-01T23:48:13.816Z,52.17
2022-12-01T23:50:40.348Z,50.17
2022-12-01T23:53:32.976Z,54.28
2022-12-01T23:56:11.398Z,44.58
2022-12-01T23:58:37.927Z,55.67
